01:07 Rennrad Moetz - Pettnau - Zirl - Kematen - Voels - Radweg - Innsbruck ARZ
Ort Moetz Datum 06.09.2017 06:20:15
Kategorie Rennrad
Distanz 39,14 Kilometer Steigung 18,7 Meter Gefälle -27,8 Meter
Gesamt Zeit 01:07:27 Aktiv 01:07:27 Pause 00:00:00
Durchs. Tempo 34,8 km/h Tempo max. 51,3 km/h Tempo min. 19,3 km/h
Kalorien 0 Durchs. HF 129 BPM HF max. 151 BPM
Wetter 14 °C Clouds Min/Max: 13,8 °C/14,4 °C; Druck: 1020,9 mbar; Rel. Feuchte: 94,7%; Taupunkt: 12,6 °C; Windgeschwindigkeit: 0,4 km/h; Niederschlag: 0,0mm
Ausrüstung Bontrager - RL Road
Scott - Addict 20
Shimano - CN-HG601-11
Notiz Moetz - Pettnau - Zirl - Kematen - Voels - Radweg - Innsbruck ARZ ... trocken, frisch, bis Telfs ziemlich dunkel, praktisch windstill - locker bis flott ... garmin connect
Splits
Distanz (km) Gesamt Zeit Split Zeit Split Tempo Split Tempo Höhenprofil (m)
1,00 00:02:04 00:02:04 00:02:04 29,0 -10,00
2,00 00:03:53 00:01:48 00:01:49 33,0 0,26
3,00 00:05:33 00:01:40 00:01:41 35,8 -0,65
4,00 00:07:16 00:01:42 00:01:43 35,0 -3,88
5,00 00:08:57 00:01:40 00:01:41 35,8 0,74
6,00 00:10:39 00:01:41 00:01:42 35,3 -0,32
7,00 00:12:20 00:01:40 00:01:41 35,7 -1,25
8,00 00:13:52 00:01:32 00:01:33 38,9 -7,48
9,00 00:15:31 00:01:39 00:01:39 36,3 -2,75
10,00 00:17:19 00:01:47 00:01:47 33,6 0,71
11,00 00:18:57 00:01:38 00:01:38 36,6 0,37
12,00 00:20:35 00:01:38 00:01:38 36,6 -6,32
13,00 00:22:15 00:01:39 00:01:40 36,0 -0,08
14,00 00:24:00 00:01:44 00:01:44 34,6 0,05
15,00 00:25:46 00:01:46 00:01:47 33,7 -4,45
16,00 00:27:25 00:01:38 00:01:38 36,6 3,39
17,00 00:29:07 00:01:42 00:01:42 35,2 -8,10
18,00 00:30:50 00:01:43 00:01:43 34,9 0,00
19,00 00:32:34 00:01:43 00:01:44 34,7 -0,47
20,00 00:34:16 00:01:42 00:01:42 35,2 -0,81
21,00 00:36:01 00:01:44 00:01:45 34,4 -3,23
22,00 00:37:42 00:01:41 00:01:41 35,5 -4,01
23,00 00:39:40 00:01:57 00:01:57 30,6 11,39
24,00 00:41:22 00:01:41 00:01:42 35,3 -0,40
25,00 00:43:42 00:02:20 00:02:20 25,7 16,17
26,00 00:45:12 00:01:30 00:01:30 40,0 -10,19
27,00 00:46:29 00:01:17 00:01:18 46,4 -29,58
28,00 00:48:03 00:01:33 00:01:34 38,4 4,00
29,00 00:49:48 00:01:44 00:01:45 34,4 0,47
30,00 00:51:28 00:01:39 00:01:40 36,0 -2,67
31,00 00:52:57 00:01:29 00:01:29 40,3 -3,24
32,00 00:54:31 00:01:33 00:01:34 38,3 -1,11
33,00 00:56:12 00:01:41 00:01:41 35,5 2,23
34,00 00:58:10 00:01:57 00:01:58 30,5 -8,21
35,00 00:59:54 00:01:43 00:01:44 34,8 -3,61
36,00 01:01:40 00:01:46 00:01:46 33,9 -1,97
37,00 01:03:24 00:01:44 00:01:44 34,5 -2,02
38,00 01:05:16 00:01:51 00:01:51 32,3 1,02
39,00 01:07:10 00:01:53 00:01:54 31,6 6,24
39,14 01:07:27 00:00:16 00:02:00 30,1 0,00